Rolla, North Dakota
Current Conditions -  °F | °C
As of 8:15 AM on Sunday 25 Jan 2015 (Local Time) from K06D Reporting Station
Overcast Overcast  
Wind Chill:   Ceiling: 500
Heat Index: 14°   Visibility: 10mi
Dew Point: 12°   Wind: 5mph
Humidity: 93%   Direction: 200°SSW
Pressure: 29.97"   Gusts: NA
Location:  48.86°N, 99.62°W
Report Text: K06D 251415Z AUTO 20004KT 10SM OVC005 M10/M11 A2997 RMK AO2
Loading
Personal Weather Stations






























Interactive Weather Map New forecast layout! Learn more

10-Day Weather Forecast

Advertisements
Track Severe Weather on mobile